Time;durP1;ratioP1;P1;durP2;ratioP2;P2;SDS_P1;SDS_P2;PMS_P1;PMS_P2;Temp;Humidity;BMP_temperature;BMP_pressure;BME280_temperature;BME280_humidity;BME280_pressure;Samples;Min_cycle;Max_cycle;Signal;HPM_P1;HPM_P2
2022/08/24 00:01:38;;;;;;;9.27;8.35;;;;;;;;;;4997388;28;20520;-73
2022/08/24 00:04:03;;;;;;;8.63;7.82;;;;;;;;;;4993986;28;20199;-75
2022/08/24 00:06:28;;;;;;;9.77;7.60;;;;;;;;;;4995515;28;20266;-73
2022/08/24 00:08:55;;;;;;;9.80;8.80;;;;;;;;;;4993671;28;20172;-73
2022/08/24 00:11:20;;;;;;;8.27;7.47;;;;;;;;;;4994004;28;20282;-73
2022/08/24 00:13:46;;;;;;;10.65;9.65;;;;;;;;;;4992405;28;20254;-74
2022/08/24 00:16:11;;;;;;;10.30;9.30;;;;;;;;;;4993910;28;20271;-73
2022/08/24 00:18:37;;;;;;;10.85;9.80;;;;;;;;;;4991875;28;20199;-74
2022/08/24 00:21:03;;;;;;;11.70;10.48;;;;;;;;;;4990477;28;20194;-74
2022/08/24 00:23:28;;;;;;;11.90;10.68;;;;;;;;;;5007455;28;20685;-74
2022/08/24 00:25:54;;;;;;;10.50;9.45;;;;;;;;;;4984938;28;20218;-74
2022/08/24 00:28:19;;;;;;;10.60;9.25;;;;;;;;;;4988521;28;20179;-74
2022/08/24 00:30:44;;;;;;;9.37;8.47;;;;;;;;;;4995273;28;20258;-74
2022/08/24 00:33:09;;;;;;;10.88;9.85;;;;;;;;;;4993593;28;20856;-74
2022/08/24 00:35:35;;;;;;;9.60;8.67;;;;;;;;;;4991668;28;20266;-74
2022/08/24 00:38:00;;;;;;;11.30;10.10;;;;;;;;;;4998985;28;20857;-74
2022/08/24 00:40:27;;;;;;;11.13;9.63;;;;;;;;;;4997518;28;20214;-73
2022/08/24 00:42:54;;;;;;;12.10;10.90;;;;;;;;;;4993687;28;20266;-75
2022/08/24 00:45:19;;;;;;;14.25;11.88;;;;;;;;;;4992083;28;20579;-74
2022/08/24 00:47:48;;;;;;;11.90;10.75;;;;;;;;;;4991799;28;20668;-74
2022/08/24 00:50:17;;;;;;;12.52;11.23;;;;;;;;;;4991461;28;20652;-75
2022/08/24 00:52:45;;;;;;;11.45;10.35;;;;;;;;;;4999317;28;22977;-75
2022/08/24 00:55:22;;;;;;;12.82;11.57;;;;;;;;;;4993849;28;20672;-73
2022/08/24 00:57:49;;;;;;;11.93;10.52;;;;;;;;;;4997742;28;20171;-74
2022/08/24 01:00:20;;;;;;;16.10;11.32;;;;;;;;;;4995079;28;20176;-74
2022/08/24 01:02:47;;;;;;;12.65;11.40;;;;;;;;;;4993609;28;20231;-74
2022/08/24 01:05:15;;;;;;;13.13;11.82;;;;;;;;;;4990955;28;20183;-73
2022/08/24 01:07:40;;;;;;;12.07;10.95;;;;;;;;;;4991622;28;20176;-73
2022/08/24 01:10:09;;;;;;;12.13;10.93;;;;;;;;;;4992110;28;20211;-76
2022/08/24 01:12:36;;;;;;;12.68;11.07;;;;;;;;;;4989617;28;20705;-74
2022/08/24 01:15:03;;;;;;;12.00;10.80;;;;;;;;;;4992221;28;20219;-74
2022/08/24 01:20:13;;;;;;;15.27;13.75;;;;;;;;;;4992969;28;20556;-73
2022/08/24 01:23:01;;;;;;;13.20;11.85;;;;;;;;;;4986458;28;20668;-74
2022/08/24 01:25:28;;;;;;;17.40;15.60;;;;;;;;;;4954568;28;20202;-74
2022/08/24 01:27:55;;;;;;;14.95;13.45;;;;;;;;;;4988450;28;20179;-75
2022/08/24 01:30:20;;;;;;;15.77;14.27;;;;;;;;;;4992635;28;20631;-74
2022/08/24 01:32:57;;;;;;;20.48;17.70;;;;;;;;;;4998890;28;20195;-74
2022/08/24 01:35:22;;;;;;;17.45;15.52;;;;;;;;;;4991872;28;20175;-74
2022/08/24 01:37:48;;;;;;;15.38;13.82;;;;;;;;;;4996002;28;20542;-74
2022/08/24 01:40:13;;;;;;;19.15;16.85;;;;;;;;;;4986377;28;20176;-75
2022/08/24 01:42:39;;;;;;;15.52;13.93;;;;;;;;;;4989577;28;20202;-74
2022/08/24 01:45:04;;;;;;;16.70;14.95;;;;;;;;;;4994349;28;20264;-73
2022/08/24 01:47:29;;;;;;;20.85;17.60;;;;;;;;;;4990139;28;20183;-73
2022/08/24 01:49:55;;;;;;;21.42;19.13;;;;;;;;;;4990484;28;20175;-73
2022/08/24 01:52:22;;;;;;;20.52;18.00;;;;;;;;;;4991274;28;20206;-74
2022/08/24 01:54:47;;;;;;;27.05;23.25;;;;;;;;;;4990587;28;20188;-74
2022/08/24 01:57:12;;;;;;;26.70;23.80;;;;;;;;;;4985168;28;20194;-74
2022/08/24 01:59:38;;;;;;;29.35;25.77;;;;;;;;;;4989897;28;20681;-74
2022/08/24 02:02:06;;;;;;;28.20;25.30;;;;;;;;;;4993534;28;20200;-75
2022/08/24 02:04:33;;;;;;;27.40;23.13;;;;;;;;;;4993473;28;20720;-74
2022/08/24 02:06:59;;;;;;;28.45;25.45;;;;;;;;;;4987812;28;20638;-74
2022/08/24 02:09:24;;;;;;;27.75;23.15;;;;;;;;;;4997231;28;20211;-74
2022/08/24 02:11:49;;;;;;;25.80;23.05;;;;;;;;;;4988764;28;20306;-75
2022/08/24 02:14:15;;;;;;;25.73;21.33;;;;;;;;;;4996657;28;20675;-74
2022/08/24 02:16:40;;;;;;;26.73;23.83;;;;;;;;;;5000276;28;20183;-74
2022/08/24 02:19:05;;;;;;;24.45;21.85;;;;;;;;;;4995952;28;20188;-75
2022/08/24 02:21:31;;;;;;;22.48;20.25;;;;;;;;;;4990763;28;20203;-74
2022/08/24 02:23:56;;;;;;;20.30;18.25;;;;;;;;;;4990735;28;20195;-75
2022/08/24 02:26:21;;;;;;;20.40;17.25;;;;;;;;;;5005712;28;20187;-74
2022/08/24 02:28:47;;;;;;;20.27;17.80;;;;;;;;;;4990440;28;20176;-75
2022/08/24 02:31:12;;;;;;;19.52;16.65;;;;;;;;;;4991638;28;20553;-74
2022/08/24 02:33:37;;;;;;;19.33;17.33;;;;;;;;;;4989639;28;20562;-74
2022/08/24 02:36:03;;;;;;;18.55;16.65;;;;;;;;;;4989424;28;20188;-75
2022/08/24 02:38:29;;;;;;;18.27;16.23;;;;;;;;;;4995485;28;20187;-74
2022/08/24 02:40:55;;;;;;;18.38;16.23;;;;;;;;;;4993641;28;20176;-74
2022/08/24 02:43:20;;;;;;;19.85;16.92;;;;;;;;;;4993032;28;20203;-75
2022/08/24 02:45:46;;;;;;;19.93;17.80;;;;;;;;;;4993185;28;20203;-75
2022/08/24 02:48:13;;;;;;;19.25;17.00;;;;;;;;;;4993698;28;20428;-74
2022/08/24 02:50:40;;;;;;;20.13;18.13;;;;;;;;;;4995498;28;20184;-75
2022/08/24 02:53:05;;;;;;;18.20;15.88;;;;;;;;;;4986626;28;20238;-76
2022/08/24 02:55:30;;;;;;;19.77;17.70;;;;;;;;;;4991169;28;20187;-75
2022/08/24 02:57:56;;;;;;;20.33;18.23;;;;;;;;;;4994688;28;20230;-74
2022/08/24 03:00:22;;;;;;;18.80;16.77;;;;;;;;;;4999789;28;20877;-73
2022/08/24 03:02:47;;;;;;;21.98;19.77;;;;;;;;;;4994475;28;20215;-74
2022/08/24 03:05:14;;;;;;;25.20;22.38;;;;;;;;;;4997650;28;20175;-73
2022/08/24 03:07:39;;;;;;;22.80;17.92;;;;;;;;;;4992373;28;20257;-74
2022/08/24 03:10:05;;;;;;;17.83;16.00;;;;;;;;;;4995904;28;20645;-76
2022/08/24 03:12:30;;;;;;;18.67;16.63;;;;;;;;;;4987614;28;20227;-76
2022/08/24 03:14:55;;;;;;;23.38;19.27;;;;;;;;;;4993418;28;20618;-75
2022/08/24 03:17:22;;;;;;;18.77;16.75;;;;;;;;;;4991969;28;20684;-76
2022/08/24 03:19:48;;;;;;;18.63;16.65;;;;;;;;;;4993681;28;20176;-73
2022/08/24 03:22:13;;;;;;;17.40;15.02;;;;;;;;;;4997508;28;20280;-74
2022/08/24 03:24:38;;;;;;;19.25;17.42;;;;;;;;;;4991744;28;20215;-73
2022/08/24 03:27:04;;;;;;;20.02;17.95;;;;;;;;;;4992775;28;20215;-73
2022/08/24 03:29:31;;;;;;;18.13;16.20;;;;;;;;;;4991173;28;20195;-73
2022/08/24 03:31:57;;;;;;;16.60;14.90;;;;;;;;;;4991831;28;20199;-75
2022/08/24 03:34:22;;;;;;;20.23;17.95;;;;;;;;;;4993129;28;20237;-76
2022/08/24 03:36:47;;;;;;;23.45;19.92;;;;;;;;;;4991760;28;20663;-76
2022/08/24 03:39:13;;;;;;;21.93;18.10;;;;;;;;;;4995129;28;20450;-74
2022/08/24 03:41:38;;;;;;;20.08;17.88;;;;;;;;;;4992229;28;20456;-74
2022/08/24 03:44:04;;;;;;;21.60;18.60;;;;;;;;;;4991672;28;20211;-75
2022/08/24 03:46:34;;;;;;;28.83;21.77;;;;;;;;;;4990929;28;20202;-74
2022/08/24 03:48:59;;;;;;;19.92;17.83;;;;;;;;;;4985682;28;20534;-74
2022/08/24 03:51:25;;;;;;;18.85;16.95;;;;;;;;;;4991659;28;20187;-74
2022/08/24 03:53:51;;;;;;;22.10;19.42;;;;;;;;;;4991332;28;20215;-74
2022/08/24 03:56:17;;;;;;;23.50;19.88;;;;;;;;;;4991646;28;20191;-74
2022/08/24 03:58:42;;;;;;;20.73;18.45;;;;;;;;;;4990238;28;20187;-74
2022/08/24 04:01:08;;;;;;;20.92;18.83;;;;;;;;;;4992178;28;20219;-74
2022/08/24 04:03:34;;;;;;;17.38;15.68;;;;;;;;;;4992186;28;20208;-75
2022/08/24 04:06:00;;;;;;;17.67;15.25;;;;;;;;;;4991988;28;20188;-74
2022/08/24 04:08:25;;;;;;;16.83;14.57;;;;;;;;;;4988811;28;20184;-73
2022/08/24 04:10:50;;;;;;;17.20;15.45;;;;;;;;;;4988491;28;20226;-74
2022/08/24 04:13:16;;;;;;;15.40;13.80;;;;;;;;;;4987071;28;20302;-74
2022/08/24 04:15:42;;;;;;;18.75;16.75;;;;;;;;;;4993239;28;20433;-74
2022/08/24 04:18:07;;;;;;;18.48;16.58;;;;;;;;;;4993584;28;20624;-74
2022/08/24 04:20:36;;;;;;;21.42;17.88;;;;;;;;;;4992799;28;20187;-74
2022/08/24 04:23:02;;;;;;;20.83;17.70;;;;;;;;;;4992321;28;20207;-74
2022/08/24 04:25:27;;;;;;;21.27;17.65;;;;;;;;;;5006535;28;20178;-74
2022/08/24 04:27:52;;;;;;;22.37;19.00;;;;;;;;;;4998067;28;20262;-74
2022/08/24 04:30:17;;;;;;;16.23;14.60;;;;;;;;;;4993235;28;20417;-74
2022/08/24 04:32:42;;;;;;;18.77;16.73;;;;;;;;;;4993351;28;20199;-74
2022/08/24 04:35:08;;;;;;;22.05;18.75;;;;;;;;;;4996480;28;20180;-74
2022/08/24 04:37:33;;;;;;;19.48;17.23;;;;;;;;;;4991516;28;20675;-74
2022/08/24 04:39:58;;;;;;;16.55;14.85;;;;;;;;;;4991197;28;20183;-74
2022/08/24 04:42:24;;;;;;;17.08;15.27;;;;;;;;;;4989513;28;20229;-74
2022/08/24 04:44:49;;;;;;;18.67;16.73;;;;;;;;;;4996199;28;20580;-74
2022/08/24 04:47:14;;;;;;;18.25;16.35;;;;;;;;;;4994440;28;20206;-74
2022/08/24 04:49:40;;;;;;;23.60;20.80;;;;;;;;;;4999037;28;20178;-74
2022/08/24 04:52:07;;;;;;;23.02;18.33;;;;;;;;;;4992363;28;20198;-73
2022/08/24 04:54:32;;;;;;;19.20;15.73;;;;;;;;;;4999412;28;20478;-73
2022/08/24 04:56:57;;;;;;;21.13;16.00;;;;;;;;;;4992364;28;20211;-74
2022/08/24 04:59:23;;;;;;;15.83;14.13;;;;;;;;;;4991336;28;20271;-74
2022/08/24 05:01:48;;;;;;;17.58;14.45;;;;;;;;;;4989608;28;20543;-75
2022/08/24 05:04:13;;;;;;;16.70;13.70;;;;;;;;;;4988504;28;20708;-76
2022/08/24 05:06:39;;;;;;;13.40;11.73;;;;;;;;;;4995035;28;20834;-75
2022/08/24 05:09:04;;;;;;;18.80;15.27;;;;;;;;;;4990008;28;20330;-75
2022/08/24 05:11:30;;;;;;;17.60;15.52;;;;;;;;;;4995947;28;20254;-76
2022/08/24 05:13:55;;;;;;;18.52;15.13;;;;;;;;;;4983791;28;20199;-74
2022/08/24 05:16:21;;;;;;;16.98;14.07;;;;;;;;;;4986689;28;20195;-74
2022/08/24 05:18:47;;;;;;;13.80;11.90;;;;;;;;;;4996238;28;20179;-74
2022/08/24 05:21:13;;;;;;;13.60;11.80;;;;;;;;;;4994450;28;20178;-74
2022/08/24 05:23:39;;;;;;;14.30;12.20;;;;;;;;;;4990669;28;20257;-74
2022/08/24 05:26:13;;;;;;;14.95;13.00;;;;;;;;;;4995573;28;20180;-74
2022/08/24 05:28:38;;;;;;;20.60;16.65;;;;;;;;;;4994315;28;20168;-74
2022/08/24 05:31:12;;;;;;;23.25;18.42;;;;;;;;;;4997307;28;20174;-74
2022/08/24 05:33:38;;;;;;;21.60;18.35;;;;;;;;;;4992877;28;20610;-74
2022/08/24 05:36:04;;;;;;;24.30;18.95;;;;;;;;;;5000234;28;20181;-75
2022/08/24 05:38:31;;;;;;;22.52;18.48;;;;;;;;;;5000218;28;20277;-74
2022/08/24 05:40:57;;;;;;;26.20;21.85;;;;;;;;;;4999426;28;20174;-74
2022/08/24 05:43:22;;;;;;;26.40;21.75;;;;;;;;;;4994361;28;20590;-74
2022/08/24 05:45:47;;;;;;;28.35;22.75;;;;;;;;;;4991555;28;20175;-74
2022/08/24 05:48:12;;;;;;;25.23;20.35;;;;;;;;;;4996714;28;20255;-74
2022/08/24 05:50:38;;;;;;;28.53;21.07;;;;;;;;;;4991535;28;20273;-74
2022/08/24 05:53:03;;;;;;;25.17;21.50;;;;;;;;;;4994814;28;20468;-74
2022/08/24 05:55:29;;;;;;;31.17;24.38;;;;;;;;;;4994314;28;20428;-75
2022/08/24 05:57:55;;;;;;;29.17;24.00;;;;;;;;;;4994239;28;20239;-74
2022/08/24 06:00:22;;;;;;;27.58;21.77;;;;;;;;;;4991929;28;20218;-74
2022/08/24 06:02:47;;;;;;;26.17;21.60;;;;;;;;;;4990467;28;20696;-75
2022/08/24 06:05:12;;;;;;;22.60;19.73;;;;;;;;;;4996265;28;20191;-75
2022/08/24 06:07:38;;;;;;;25.00;22.23;;;;;;;;;;5000797;28;20456;-74
2022/08/24 06:10:03;;;;;;;27.73;23.42;;;;;;;;;;4995681;28;20168;-74
2022/08/24 06:12:28;;;;;;;23.95;21.00;;;;;;;;;;4991511;28;20210;-74
2022/08/24 06:14:53;;;;;;;26.13;21.90;;;;;;;;;;5004461;28;20178;-75
2022/08/24 06:17:19;;;;;;;21.37;19.10;;;;;;;;;;4999980;28;20948;-75
2022/08/24 06:19:44;;;;;;;21.07;17.97;;;;;;;;;;4996091;28;20427;-75
2022/08/24 06:22:09;;;;;;;18.73;16.73;;;;;;;;;;5001563;28;20424;-75
2022/08/24 06:27:22;;;;;;;20.25;17.23;;;;;;;;;;4996944;28;20186;-75
2022/08/24 06:29:51;;;;;;;21.98;19.55;;;;;;;;;;4998350;28;20649;-74
2022/08/24 06:32:17;;;;;;;21.00;18.20;;;;;;;;;;5004378;28;20747;-75
2022/08/24 06:34:42;;;;;;;20.08;18.05;;;;;;;;;;5001472;28;20167;-75
2022/08/24 06:37:07;;;;;;;19.87;17.80;;;;;;;;;;4997454;28;20183;-75
2022/08/24 06:39:32;;;;;;;18.98;16.98;;;;;;;;;;5000745;28;20431;-75
2022/08/24 06:41:58;;;;;;;18.70;16.77;;;;;;;;;;4994949;28;20243;-75
2022/08/24 06:44:23;;;;;;;22.58;16.25;;;;;;;;;;4996141;28;20518;-74
2022/08/24 06:46:48;;;;;;;16.58;14.90;;;;;;;;;;4997617;28;20653;-74
2022/08/24 06:49:14;;;;;;;17.83;16.10;;;;;;;;;;4993287;28;20531;-74
2022/08/24 06:51:39;;;;;;;17.50;14.20;;;;;;;;;;4991472;28;20246;-74
2022/08/24 06:54:04;;;;;;;16.70;14.67;;;;;;;;;;4995381;28;20184;-74
2022/08/24 06:56:29;;;;;;;18.10;14.63;;;;;;;;;;4990659;28;20483;-74
2022/08/24 06:58:55;;;;;;;15.65;14.07;;;;;;;;;;4994330;28;20184;-76
2022/08/24 07:01:22;;;;;;;15.18;13.55;;;;;;;;;;4993833;28;20183;-75
2022/08/24 07:03:47;;;;;;;15.82;14.23;;;;;;;;;;4990998;28;20206;-75
2022/08/24 07:06:13;;;;;;;16.20;14.50;;;;;;;;;;4989132;28;20176;-75
2022/08/24 07:08:38;;;;;;;15.35;13.88;;;;;;;;;;4993330;28;20453;-75
2022/08/24 07:11:04;;;;;;;16.42;14.77;;;;;;;;;;4993958;28;20231;-75
2022/08/24 07:13:30;;;;;;;13.40;11.80;;;;;;;;;;4997450;28;20199;-75
2022/08/24 07:15:55;;;;;;;16.58;14.20;;;;;;;;;;4994373;28;20581;-74
2022/08/24 07:18:20;;;;;;;14.23;12.68;;;;;;;;;;4998417;28;20578;-74
2022/08/24 07:20:46;;;;;;;13.95;12.65;;;;;;;;;;4990538;28;20254;-74
2022/08/24 07:23:13;;;;;;;15.20;12.90;;;;;;;;;;5000224;28;20218;-74
2022/08/24 07:25:38;;;;;;;16.55;13.63;;;;;;;;;;4993922;28;20228;-75
2022/08/24 07:28:04;;;;;;;13.93;12.50;;;;;;;;;;4998394;28;20182;-74
2022/08/24 07:30:30;;;;;;;14.32;12.82;;;;;;;;;;4996518;28;20186;-74
2022/08/24 07:32:58;;;;;;;13.05;11.75;;;;;;;;;;4998336;28;20688;-75
2022/08/24 07:35:24;;;;;;;12.77;11.45;;;;;;;;;;4993324;28;20199;-76
2022/08/24 07:37:49;;;;;;;10.38;9.27;;;;;;;;;;5002957;28;20253;-76
2022/08/24 07:40:15;;;;;;;10.97;9.90;;;;;;;;;;4999225;28;20548;-75
2022/08/24 07:42:40;;;;;;;10.73;9.43;;;;;;;;;;4998290;28;21090;-74
2022/08/24 07:45:05;;;;;;;13.20;10.40;;;;;;;;;;4993316;28;20207;-73
2022/08/24 07:47:31;;;;;;;12.00;10.13;;;;;;;;;;4999025;28;20417;-74
2022/08/24 07:49:56;;;;;;;11.60;9.90;;;;;;;;;;4997642;28;20167;-75
2022/08/24 07:52:21;;;;;;;11.87;10.67;;;;;;;;;;5002752;28;20853;-74
2022/08/24 07:54:46;;;;;;;8.88;7.93;;;;;;;;;;4995255;28;20449;-75
2022/08/24 07:57:11;;;;;;;9.70;8.47;;;;;;;;;;4996577;28;20171;-74
2022/08/24 07:59:37;;;;;;;9.77;8.60;;;;;;;;;;5000250;28;20409;-74
2022/08/24 08:02:04;;;;;;;11.63;9.00;;;;;;;;;;4995027;28;20468;-74
2022/08/24 08:04:30;;;;;;;11.25;9.10;;;;;;;;;;4992766;28;20214;-74
2022/08/24 08:06:56;;;;;;;9.57;7.78;;;;;;;;;;4991289;28;20172;-74
2022/08/24 08:09:21;;;;;;;9.50;7.78;;;;;;;;;;4996193;28;20179;-74
2022/08/24 08:11:46;;;;;;;7.27;6.20;;;;;;;;;;4993689;28;20199;-75
2022/08/24 08:14:13;;;;;;;7.70;6.47;;;;;;;;;;4993844;28;20176;-74
2022/08/24 08:16:38;;;;;;;8.95;7.75;;;;;;;;;;4994601;28;20176;-74
2022/08/24 08:19:04;;;;;;;8.68;7.20;;;;;;;;;;4997221;28;21905;-74
2022/08/24 08:24:16;;;;;;;8.15;5.78;;;;;;;;;;4992706;28;20230;-75
2022/08/24 08:26:46;;;;;;;10.95;9.20;;;;;;;;;;4992309;28;20164;-75
2022/08/24 08:29:12;;;;;;;9.80;7.78;;;;;;;;;;4988894;28;20646;-73
2022/08/24 08:31:38;;;;;;;9.07;8.20;;;;;;;;;;4991046;28;20227;-74
2022/08/24 08:34:03;;;;;;;10.27;9.07;;;;;;;;;;4992790;28;20719;-75
2022/08/24 08:36:29;;;;;;;9.82;8.10;;;;;;;;;;4991593;28;20172;-74
2022/08/24 08:38:54;;;;;;;7.53;6.55;;;;;;;;;;4997165;28;20222;-74
2022/08/24 08:41:40;;;;;;;10.10;6.93;;;;;;;;;;4991526;28;20179;-75
2022/08/24 08:44:18;;;;;;;8.52;7.63;;;;;;;;;;4991667;28;20222;-74
2022/08/24 08:47:01;;;;;;;7.25;6.55;;;;;;;;;;4988662;28;20246;-74
2022/08/24 08:49:32;;;;;;;9.65;6.35;;;;;;;;;;4991061;28;20306;-74
2022/08/24 08:52:16;;;;;;;7.75;5.97;;;;;;;;;;4990659;28;20415;-74
2022/08/24 08:54:41;;;;;;;6.00;5.25;;;;;;;;;;4991198;28;20171;-73
2022/08/24 08:57:07;;;;;;;7.10;4.30;;;;;;;;;;4992212;28;20528;-74
2022/08/24 08:59:38;;;;;;;6.63;5.93;;;;;;;;;;4992280;28;20180;-74
2022/08/24 09:02:21;;;;;;;8.02;5.82;;;;;;;;;;4991509;28;20232;-75
2022/08/24 09:04:46;;;;;;;5.47;4.80;;;;;;;;;;4991751;28;20199;-75
2022/08/24 09:07:16;;;;;;;5.45;4.93;;;;;;;;;;4991458;28;20290;-75
2022/08/24 09:09:41;;;;;;;6.18;5.43;;;;;;;;;;4994648;28;20253;-75
2022/08/24 09:12:11;;;;;;;4.83;4.33;;;;;;;;;;4994306;28;20194;-74
2022/08/24 09:14:39;;;;;;;5.80;4.93;;;;;;;;;;4993455;28;20179;-74
2022/08/24 09:17:07;;;;;;;5.45;4.70;;;;;;;;;;4992155;28;20198;-74
2022/08/24 09:19:48;;;;;;;5.80;4.57;;;;;;;;;;4992133;28;20255;-75
2022/08/24 09:22:13;;;;;;;5.90;5.20;;;;;;;;;;4992018;28;20242;-74
2022/08/24 09:24:50;;;;;;;4.80;4.40;;;;;;;;;;4990587;28;20195;-74
2022/08/24 09:27:34;;;;;;;6.30;5.70;;;;;;;;;;4988578;28;20209;-74
2022/08/24 09:30:12;;;;;;;5.72;5.03;;;;;;;;;;4992896;28;20655;-75
2022/08/24 09:32:55;;;;;;;5.72;5.10;;;;;;;;;;4991859;28;20287;-75
2022/08/24 09:35:39;;;;;;;6.78;4.50;;;;;;;;;;4986294;28;20188;-75
2022/08/24 09:38:23;;;;;;;6.07;5.00;;;;;;;;;;4995905;28;20261;-75
2022/08/24 09:40:53;;;;;;;7.63;5.07;;;;;;;;;;4991429;28;20229;-75
2022/08/24 09:43:23;;;;;;;5.95;4.65;;;;;;;;;;4990496;28;20210;-75
2022/08/24 09:46:06;;;;;;;4.38;3.33;;;;;;;;;;4991943;28;20178;-75
2022/08/24 09:48:38;;;;;;;5.07;4.28;;;;;;;;;;4993771;28;20179;-74
2022/08/24 09:51:09;;;;;;;8.57;2.75;;;;;;;;;;4995407;28;20259;-74
2022/08/24 09:53:40;;;;;;;3.47;3.13;;;;;;;;;;4995464;28;20676;-75
2022/08/24 09:56:14;;;;;;;5.28;3.08;;;;;;;;;;4995263;28;20640;-75
2022/08/24 09:58:56;;;;;;;3.22;2.03;;;;;;;;;;4995596;28;20230;-73
2022/08/24 10:01:27;;;;;;;2.63;2.42;;;;;;;;;;4993310;28;20190;-73
2022/08/24 10:04:00;;;;;;;5.88;3.17;;;;;;;;;;4996029;28;20287;-73
2022/08/24 10:06:37;;;;;;;2.17;1.95;;;;;;;;;;5001004;28;20187;-73
2022/08/24 10:09:24;;;;;;;3.58;1.95;;;;;;;;;;4999303;28;20204;-73
2022/08/24 10:12:05;;;;;;;2.42;2.17;;;;;;;;;;4993007;28;20563;-74
2022/08/24 10:14:48;;;;;;;2.45;1.88;;;;;;;;;;4996894;28;20674;-74
2022/08/24 10:17:21;;;;;;;1.85;1.42;;;;;;;;;;4996104;28;20179;-75
2022/08/24 10:19:46;;;;;;;2.30;1.90;;;;;;;;;;4995359;28;20648;-74
2022/08/24 10:22:30;;;;;;;3.90;2.63;;;;;;;;;;4995184;28;20289;-75
2022/08/24 10:25:14;;;;;;;3.63;2.10;;;;;;;;;;5001135;28;20298;-74
2022/08/24 10:27:58;;;;;;;2.40;2.20;;;;;;;;;;5002493;28;20167;-74
2022/08/24 10:30:41;;;;;;;2.67;1.80;;;;;;;;;;5000648;28;20597;-74
2022/08/24 10:33:21;;;;;;;2.70;2.30;;;;;;;;;;4995530;28;20206;-75
2022/08/24 10:35:55;;;;;;;3.75;2.00;;;;;;;;;;4996063;28;20175;-74
2022/08/24 10:41:19;;;;;;;3.20;2.10;;;;;;;;;;4993414;28;20233;-74
2022/08/24 10:44:04;;;;;;;3.08;1.88;;;;;;;;;;4984755;28;20226;-74
2022/08/24 10:46:38;;;;;;;2.10;1.65;;;;;;;;;;5000227;28;20225;-74
2022/08/24 10:49:22;;;;;;;3.08;1.70;;;;;;;;;;4993241;28;20570;-74
2022/08/24 10:51:49;;;;;;;2.05;1.85;;;;;;;;;;4984050;28;20195;-74
2022/08/24 10:54:17;;;;;;;2.00;1.80;;;;;;;;;;4992129;28;20434;-74
2022/08/24 10:57:02;;;;;;;2.35;2.00;;;;;;;;;;4989524;28;20476;-74
2022/08/24 10:59:31;;;;;;;3.10;2.00;;;;;;;;;;4976250;28;20191;-74
2022/08/24 11:02:05;;;;;;;2.50;1.90;;;;;;;;;;4993664;28;20282;-73
2022/08/24 11:04:31;;;;;;;2.28;2.08;;;;;;;;;;4993562;28;20282;-73
2022/08/24 11:07:08;;;;;;;2.60;1.90;;;;;;;;;;4998100;28;20202;-74
2022/08/24 11:09:52;;;;;;;2.92;2.10;;;;;;;;;;4993293;28;20182;-75
2022/08/24 11:12:22;;;;;;;1.98;1.65;;;;;;;;;;4991278;28;20257;-74
2022/08/24 11:14:48;;;;;;;2.33;1.83;;;;;;;;;;4994037;28;20549;-74
2022/08/24 11:17:15;;;;;;;1.45;1.25;;;;;;;;;;4993333;28;20186;-75
2022/08/24 11:19:41;;;;;;;2.47;1.20;;;;;;;;;;4990852;28;20648;-75
2022/08/24 11:22:25;;;;;;;2.08;1.33;;;;;;;;;;4988055;28;20226;-74
2022/08/24 11:24:52;;;;;;;1.83;1.10;;;;;;;;;;4991189;28;20195;-74
2022/08/24 11:27:24;;;;;;;3.08;1.40;;;;;;;;;;4991165;28;20190;-74
2022/08/24 11:29:53;;;;;;;1.65;1.20;;;;;;;;;;4992137;28;20175;-74
2022/08/24 11:32:27;;;;;;;4.57;1.15;;;;;;;;;;4989584;28;20301;-74
2022/08/24 11:34:53;;;;;;;2.63;1.00;;;;;;;;;;5006406;28;20261;-74
2022/08/24 11:37:21;;;;;;;1.23;1.13;;;;;;;;;;4993373;28;20627;-74
2022/08/24 11:39:47;;;;;;;1.20;1.10;;;;;;;;;;4999705;28;20409;-75
2022/08/24 11:42:16;;;;;;;1.92;1.00;;;;;;;;;;4990302;28;20278;-74
2022/08/24 11:44:53;;;;;;;1.85;1.30;;;;;;;;;;4996707;28;20202;-75
2022/08/24 11:47:38;;;;;;;1.00;0.80;;;;;;;;;;4991358;28;21002;-74
2022/08/24 11:50:23;;;;;;;1.23;0.82;;;;;;;;;;4988971;28;20179;-74
2022/08/24 11:53:07;;;;;;;0.73;0.65;;;;;;;;;;4991604;28;20297;-75
2022/08/24 11:55:38;;;;;;;2.80;0.70;;;;;;;;;;4992758;28;20190;-75
2022/08/24 11:58:15;;;;;;;2.55;0.90;;;;;;;;;;4993703;28;20175;-74
2022/08/24 12:00:51;;;;;;;1.40;1.05;;;;;;;;;;4992860;28;20183;-72
2022/08/24 12:03:38;;;;;;;0.82;0.70;;;;;;;;;;4985149;28;20264;-75
2022/08/24 12:06:07;;;;;;;4.05;1.15;;;;;;;;;;4988164;28;20175;-72
2022/08/24 12:08:44;;;;;;;0.90;0.70;;;;;;;;;;4992853;28;20211;-73
2022/08/24 12:11:14;;;;;;;1.20;0.90;;;;;;;;;;4992901;28;20167;-73
2022/08/24 12:13:52;;;;;;;2.38;0.80;;;;;;;;;;4991279;28;20217;-73
2022/08/24 12:16:24;;;;;;;1.67;0.90;;;;;;;;;;4992215;28;20241;-74
2022/08/24 12:18:52;;;;;;;3.50;0.75;;;;;;;;;;4992798;28;20175;-73
2022/08/24 12:21:21;;;;;;;1.35;0.90;;;;;;;;;;4992763;28;20175;-74
2022/08/24 12:23:48;;;;;;;2.13;0.88;;;;;;;;;;4991972;28;20248;-73
2022/08/24 12:26:33;;;;;;;0.85;0.77;;;;;;;;;;4990939;28;20242;-73
2022/08/24 12:29:18;;;;;;;1.13;0.80;;;;;;;;;;4992912;28;20167;-73
2022/08/24 12:31:46;;;;;;;1.15;0.82;;;;;;;;;;4981225;28;20252;-73
2022/08/24 12:34:16;;;;;;;2.67;0.60;;;;;;;;;;4992605;28;20175;-75
2022/08/24 12:36:45;;;;;;;1.88;0.75;;;;;;;;;;4992564;28;20561;-73
2022/08/24 12:39:16;;;;;;;0.85;0.82;;;;;;;;;;4998985;28;20179;-72
2022/08/24 12:41:47;;;;;;;1.35;1.00;;;;;;;;;;4993583;28;20232;-73
2022/08/24 12:44:14;;;;;;;1.15;0.77;;;;;;;;;;4998551;28;20245;-73
2022/08/24 12:46:42;;;;;;;1.55;0.80;;;;;;;;;;5000442;28;20170;-73
2022/08/24 12:49:18;;;;;;;1.10;0.70;;;;;;;;;;4994052;28;20542;-73
2022/08/24 12:51:46;;;;;;;2.15;0.82;;;;;;;;;;4986742;28;20202;-73
2022/08/24 12:54:23;;;;;;;1.80;0.80;;;;;;;;;;4995880;28;20175;-73
2022/08/24 12:57:03;;;;;;;1.55;0.90;;;;;;;;;;4988836;28;20576;-74
2022/08/24 12:59:42;;;;;;;1.20;0.82;;;;;;;;;;4993707;28;20170;-74
2022/08/24 13:02:13;;;;;;;1.10;1.00;;;;;;;;;;4993416;28;20248;-73
2022/08/24 13:04:42;;;;;;;0.85;0.85;;;;;;;;;;4992174;28;20195;-73
2022/08/24 13:07:30;;;;;;;2.05;0.82;;;;;;;;;;4996560;28;20178;-74
2022/08/24 13:09:55;;;;;;;1.10;0.75;;;;;;;;;;4985067;28;20171;-73
2022/08/24 13:12:29;;;;;;;2.87;0.83;;;;;;;;;;4992720;28;20634;-73
2022/08/24 13:15:13;;;;;;;0.80;0.80;;;;;;;;;;4992200;28;20177;-73
2022/08/24 13:17:40;;;;;;;1.40;0.90;;;;;;;;;;4991353;28;20179;-73
2022/08/24 13:20:18;;;;;;;2.13;0.68;;;;;;;;;;4992232;28;20187;-73
2022/08/24 13:22:59;;;;;;;0.98;0.80;;;;;;;;;;4983626;28;20205;-73
2022/08/24 13:25:37;;;;;;;1.10;0.90;;;;;;;;;;4992197;28;20256;-73
2022/08/24 13:28:05;;;;;;;2.55;0.90;;;;;;;;;;4992037;28;20380;-73
2022/08/24 13:30:34;;;;;;;1.20;1.10;;;;;;;;;;4992155;28;20167;-74
2022/08/24 13:33:03;;;;;;;0.80;0.80;;;;;;;;;;4992124;28;20612;-74
2022/08/24 13:35:33;;;;;;;1.77;0.93;;;;;;;;;;4993417;28;20179;-73
2022/08/24 13:38:17;;;;;;;1.80;0.80;;;;;;;;;;4996513;28;20166;-73
2022/08/24 13:40:49;;;;;;;0.80;0.80;;;;;;;;;;4993282;28;20198;-74
2022/08/24 13:43:21;;;;;;;0.70;0.70;;;;;;;;;;4991804;28;20572;-73
2022/08/24 13:45:53;;;;;;;1.25;0.77;;;;;;;;;;4993289;28;20167;-73
2022/08/24 13:48:24;;;;;;;1.15;1.00;;;;;;;;;;4993169;28;20190;-74
2022/08/24 13:51:08;;;;;;;1.13;0.90;;;;;;;;;;4991441;28;20176;-73
2022/08/24 13:53:46;;;;;;;0.77;0.77;;;;;;;;;;4985529;28;20237;-74
2022/08/24 13:56:30;;;;;;;1.23;1.13;;;;;;;;;;4993143;28;20257;-74
2022/08/24 13:59:14;;;;;;;1.13;1.02;;;;;;;;;;4984879;28;20188;-74
2022/08/24 14:01:58;;;;;;;1.25;1.00;;;;;;;;;;4996206;28;20191;-73
2022/08/24 14:04:23;;;;;;;1.10;1.00;;;;;;;;;;5001063;28;20202;-73
2022/08/24 14:07:06;;;;;;;1.90;0.90;;;;;;;;;;4991984;28;20559;-73
2022/08/24 14:09:43;;;;;;;1.20;1.10;;;;;;;;;;4994706;28;20178;-73
2022/08/24 14:12:33;;;;;;;1.20;0.80;;;;;;;;;;4990111;28;20289;-73
2022/08/24 14:15:01;;;;;;;1.45;0.90;;;;;;;;;;4993896;28;20187;-73
2022/08/24 14:17:51;;;;;;;2.47;1.00;;;;;;;;;;4996861;28;20273;-73
2022/08/24 14:20:31;;;;;;;1.90;1.40;;;;;;;;;;4992018;28;20214;-74
2022/08/24 14:23:15;;;;;;;1.48;0.90;;;;;;;;;;4993170;28;20198;-73
2022/08/24 14:25:40;;;;;;;3.17;1.13;;;;;;;;;;4991632;28;20187;-73
2022/08/24 14:28:32;;;;;;;2.00;1.02;;;;;;;;;;4991272;28;20181;-73
2022/08/24 14:31:16;;;;;;;2.50;1.50;;;;;;;;;;4995343;28;20193;-74
2022/08/24 14:33:49;;;;;;;3.00;0.75;;;;;;;;;;5004486;28;20182;-74
2022/08/24 14:36:20;;;;;;;2.72;2.20;;;;;;;;;;4998394;28;20185;-74
2022/08/24 14:38:45;;;;;;;3.10;2.80;;;;;;;;;;5011055;28;20289;-74
2022/08/24 14:41:29;;;;;;;1.47;1.07;;;;;;;;;;5000216;28;20679;-74
2022/08/24 14:44:06;;;;;;;0.68;0.68;;;;;;;;;;4995922;28;20688;-74
2022/08/24 14:46:50;;;;;;;1.20;1.00;;;;;;;;;;4993526;28;20175;-74
2022/08/24 14:49:21;;;;;;;1.83;1.00;;;;;;;;;;5000727;28;20210;-74
2022/08/24 14:52:05;;;;;;;0.70;0.60;;;;;;;;;;4994421;28;20203;-73
2022/08/24 14:54:31;;;;;;;1.83;0.80;;;;;;;;;;4990701;28;20191;-74